Terminal Aerodrome Forecast
Issued by NWS

Home | Current Version | Previous Version | Text Only | Print | Product List | Glossary On
Versions: 1 2 3 4 5 6 7 8 9 10 11 12 13 14 15 16 17 18 19 20 21 22 23 24 25 26 27 28 29 30 31 32 33 34 35 36 37 38 39 40 41
000
FTUS43 KLOT 260800 AAA
TAFORD
TAF AMD
KORD 260857Z 2609/2712 11003KT 6SM BR FEW015 SCT250
     FM261300 11006KT P6SM BKN200
     FM262100 07006KT P6SM OVC150
     FM270200 02005KT P6SM BKN080
     FM270700 31008KT P6SM SCT025 BKN050=

USA.gov is the U.S. government's official web portal to all federal, state and local government web resources and services.